メインページ
METAR-TAF:

METAR-TAF

空港 :

ンジャメナ国際空港

ンジャメナ, チャド

緯度: 12-08N, 経度: 015-02E, 海抜: 295m

現時点の気象観測

当レポートは16分前の09:00(UTC)に作成
の風 9kt
気温 26°C
湿度 79%
気圧 1012 hPa
視程10km以上
高度2000ftの雲はほとんどない

METAR: FTTJ 200900Z 18009KT 9999 FEW020 26/22 Q1012 NOSIG

時間: 10:16 (09:16 UTC)

予報

当レポートは3時間56分前の05:20(UTC)に作成
予報は20日の 06時(UTC)から 21日の 12時(UTC)まで有効
南/南西の風 10kt
視程10km以上
高度4000ftの雲はほとんどない
確率 30% :
20日の 12時(UTC)から 20日の 20時(UTC)まで一時的に
激しい雷雨, 雨

TAF: FTTJ 200520Z 2006/2112 20010KT 9999 FEW040 PROB30 TEMPO 2012/2020 TSRA

4,000以上の空港の気象観測と天気予報(METAR報とTAF報)

利用可能な観測所は地図上に黄色い丸と赤い丸で示す。

丸の上にカーソルを重ねると観測所名を参照できる。

次にクリックすると気象観測と天気予報を参照できる。

マップの切り替え:黒色「×」印の緑ボタンをクリックして拡大、「-」印の緑ボタンをクリックして縮小、緑色の三角印をクリックして隣りの地図に切り替え


METAR-TAF: